sensor_id;sensor_type;location;lat;lon;timestamp;pressure;altitude;pressure_sealevel;temperature;humidity
31096;BME280;17749;51.962;8.560;2023-04-24T05:03:18;98583.78;;;9.77;100.00
31096;BME280;17749;51.962;8.560;2023-04-24T05:05:51;98591.19;;;9.72;100.00
31096;BME280;17749;51.962;8.560;2023-04-24T05:08:19;98602.56;;;9.59;100.00
31096;BME280;17749;51.962;8.560;2023-04-24T05:10:54;98598.97;;;9.60;100.00
31096;BME280;17749;51.962;8.560;2023-04-24T05:13:23;98598.97;;;9.60;100.00
31096;BME280;17749;51.962;8.560;2023-04-24T05:16:17;98604.84;;;9.51;100.00
31096;BME280;17749;51.962;8.560;2023-04-24T05:18:44;98594.56;;;9.45;100.00
31096;BME280;17749;51.962;8.560;2023-04-24T05:21:14;98586.84;;;9.40;100.00
31096;BME280;17749;51.962;8.560;2023-04-24T05:23:44;98587.75;;;9.41;100.00
31096;BME280;17749;51.962;8.560;2023-04-24T05:26:15;98603.31;;;9.47;100.00
31096;BME280;17749;51.962;8.560;2023-04-24T05:28:42;98587.44;;;9.46;100.00
31096;BME280;17749;51.962;8.560;2023-04-24T05:31:13;98587.63;;;9.42;100.00
31096;BME280;17749;51.962;8.560;2023-04-24T05:33:40;98593.63;;;9.46;100.00
31096;BME280;17749;51.962;8.560;2023-04-24T05:36:07;98586.69;;;9.43;100.00
31096;BME280;17749;51.962;8.560;2023-04-24T05:38:35;98592.66;;;9.47;100.00
31096;BME280;17749;51.962;8.560;2023-04-24T05:41:02;98597.81;;;9.50;100.00
31096;BME280;17749;51.962;8.560;2023-04-24T05:43:28;98592.28;;;9.53;100.00
31096;BME280;17749;51.962;8.560;2023-04-24T05:45:55;98608.16;;;9.55;100.00
31096;BME280;17749;51.962;8.560;2023-04-24T05:48:22;98605.59;;;9.53;100.00
31096;BME280;17749;51.962;8.560;2023-04-24T05:50:50;98612.38;;;9.59;100.00
31096;BME280;17749;51.962;8.560;2023-04-24T05:53:17;98604.72;;;9.53;100.00
31096;BME280;17749;51.962;8.560;2023-04-24T05:55:45;98608.09;;;9.56;100.00
31096;BME280;17749;51.962;8.560;2023-04-24T05:58:12;98612.63;;;9.54;100.00
31096;BME280;17749;51.962;8.560;2023-04-24T06:00:39;98606.34;;;9.55;100.00
31096;BME280;17749;51.962;8.560;2023-04-24T06:03:09;98610.56;;;9.59;100.00
31096;BME280;17749;51.962;8.560;2023-04-24T06:05:36;98607.13;;;9.57;100.00
31096;BME280;17749;51.962;8.560;2023-04-24T06:08:03;98609.78;;;9.57;100.00
31096;BME280;17749;51.962;8.560;2023-04-24T06:10:35;98602.78;;;9.56;100.00
31096;BME280;17749;51.962;8.560;2023-04-24T06:13:03;98606.34;;;9.55;100.00
31096;BME280;17749;51.962;8.560;2023-04-24T06:15:32;98614.59;;;9.51;100.00
31096;BME280;17749;51.962;8.560;2023-04-24T06:18:04;98618.03;;;9.53;100.00
31096;BME280;17749;51.962;8.560;2023-04-24T06:20:32;98613.56;;;9.53;100.00
31096;BME280;17749;51.962;8.560;2023-04-24T06:23:00;98616.59;;;9.61;100.00
31096;BME280;17749;51.962;8.560;2023-04-24T06:25:28;98613.41;;;9.56;100.00
31096;BME280;17749;51.962;8.560;2023-04-24T06:27:55;98619.19;;;9.63;100.00
31096;BME280;17749;51.962;8.560;2023-04-24T06:30:23;98614.13;;;9.58;100.00
31096;BME280;17749;51.962;8.560;2023-04-24T06:32:50;98619.44;;;9.58;100.00
31096;BME280;17749;51.962;8.560;2023-04-24T06:35:17;98625.72;;;9.57;100.00
31096;BME280;17749;51.962;8.560;2023-04-24T06:37:46;98624.41;;;9.64;100.00
31096;BME280;17749;51.962;8.560;2023-04-24T06:40:12;98614.53;;;9.66;100.00
31096;BME280;17749;51.962;8.560;2023-04-24T06:42:39;98619.25;;;9.61;100.00
31096;BME280;17749;51.962;8.560;2023-04-24T06:45:07;98624.78;;;9.58;100.00
31096;BME280;17749;51.962;8.560;2023-04-24T06:47:35;98614.91;;;9.60;100.00
31096;BME280;17749;51.962;8.560;2023-04-24T06:50:02;98621.06;;;9.61;100.00
31096;BME280;17749;51.962;8.560;2023-04-24T06:52:29;98619.09;;;9.64;100.00
31096;BME280;17749;51.962;8.560;2023-04-24T06:55:03;98620.72;;;9.67;100.00
31096;BME280;17749;51.962;8.560;2023-04-24T06:57:30;98625.53;;;9.60;100.00
31096;BME280;17749;51.962;8.560;2023-04-24T06:59:58;98625.34;;;9.63;100.00
31096;BME280;17749;51.962;8.560;2023-04-24T07:02:25;98615.50;;;9.65;100.00
31096;BME280;17749;51.962;8.560;2023-04-24T07:04:52;98627.66;;;9.70;100.00
31096;BME280;17749;51.962;8.560;2023-04-24T07:07:19;98625.16;;;9.66;100.00
31096;BME280;17749;51.962;8.560;2023-04-24T07:09:50;98625.34;;;9.63;100.00
31096;BME280;17749;51.962;8.560;2023-04-24T07:12:17;98629.81;;;9.63;100.00
31096;BME280;17749;51.962;8.560;2023-04-24T07:14:47;98623.28;;;9.69;100.00
31096;BME280;17749;51.962;8.560;2023-04-24T07:17:14;98622.69;;;9.63;100.00
31096;BME280;17749;51.962;8.560;2023-04-24T07:19:41;98619.69;;;9.70;100.00
31096;BME280;17749;51.962;8.560;2023-04-24T07:22:09;98621.56;;;9.68;100.00
31096;BME280;17749;51.962;8.560;2023-04-24T07:24:38;98625.47;;;9.76;100.00
31096;BME280;17749;51.962;8.560;2023-04-24T07:27:05;98627.34;;;9.74;100.00
31096;BME280;17749;51.962;8.560;2023-04-24T07:29:32;98626.69;;;9.71;100.00
31096;BME280;17749;51.962;8.560;2023-04-24T07:31:58;98623.09;;;9.72;100.00
31096;BME280;17749;51.962;8.560;2023-04-24T07:34:28;98634.75;;;9.69;100.00
31096;BME280;17749;51.962;8.560;2023-04-24T07:36:55;98626.03;;;9.67;100.00
31096;BME280;17749;51.962;8.560;2023-04-24T07:39:22;98633.81;;;9.70;100.00
31096;BME280;17749;51.962;8.560;2023-04-24T07:41:49;98637.34;;;9.71;100.00
31096;BME280;17749;51.962;8.560;2023-04-24T07:44:16;98633.19;;;9.81;100.00
31096;BME280;17749;51.962;8.560;2023-04-24T07:46:43;98640.19;;;9.82;100.00
31096;BME280;17749;51.962;8.560;2023-04-24T07:49:10;98646.47;;;9.81;100.00
31096;BME280;17749;51.962;8.560;2023-04-24T07:51:40;98640.97;;;9.84;100.00
31096;BME280;17749;51.962;8.560;2023-04-24T07:54:08;98649.50;;;9.89;100.00
31096;BME280;17749;51.962;8.560;2023-04-24T07:56:34;98644.41;;;9.86;100.00
31096;BME280;17749;51.962;8.560;2023-04-24T07:59:05;98647.44;;;9.94;100.00
31096;BME280;17749;51.962;8.560;2023-04-24T08:01:32;98655.41;;;9.94;100.00
31096;BME280;17749;51.962;8.560;2023-04-24T08:03:59;98646.00;;;10.03;100.00
31096;BME280;17749;51.962;8.560;2023-04-24T08:06:27;98652.41;;;10.15;100.00
31096;BME280;17749;51.962;8.560;2023-04-24T08:08:59;98646.69;;;10.21;100.00
31096;BME280;17749;51.962;8.560;2023-04-24T08:11:27;98648.44;;;10.22;100.00
31096;BME280;17749;51.962;8.560;2023-04-24T08:13:54;98650.13;;;10.23;100.00
31096;BME280;17749;51.962;8.560;2023-04-24T08:16:22;98655.25;;;10.26;100.00
31096;BME280;17749;51.962;8.560;2023-04-24T08:18:51;98654.66;;;10.21;100.00
31096;BME280;17749;51.962;8.560;2023-04-24T08:21:18;98666.47;;;10.17;100.00
31096;BME280;17749;51.962;8.560;2023-04-24T08:23:46;98670.06;;;10.16;100.00
31096;BME280;17749;51.962;8.560;2023-04-24T08:26:13;98667.78;;;10.24;100.00
31096;BME280;17749;51.962;8.560;2023-04-24T08:28:40;98661.09;;;10.33;100.00
31096;BME280;17749;51.962;8.560;2023-04-24T08:31:07;98668.69;;;10.39;100.00
31096;BME280;17749;51.962;8.560;2023-04-24T08:33:34;98673.53;;;10.46;100.00
31096;BME280;17749;51.962;8.560;2023-04-24T08:36:03;98676.75;;;10.51;100.00
31096;BME280;17749;51.962;8.560;2023-04-24T08:38:30;98663.75;;;10.61;100.00
31096;BME280;17749;51.962;8.560;2023-04-24T08:40:59;98678.66;;;10.64;100.00
31096;BME280;17749;51.962;8.560;2023-04-24T08:43:27;98676.16;;;10.61;100.00
31096;BME280;17749;51.962;8.560;2023-04-24T08:45:55;98665.72;;;10.58;100.00
31096;BME280;17749;51.962;8.560;2023-04-24T08:48:26;98671.88;;;10.58;100.00
31096;BME280;17749;51.962;8.560;2023-04-24T08:50:58;98669.44;;;10.55;100.00
31096;BME280;17749;51.962;8.560;2023-04-24T08:53:26;98669.34;;;10.57;100.00
31096;BME280;17749;51.962;8.560;2023-04-24T08:55:55;98669.44;;;10.55;100.00
31096;BME280;17749;51.962;8.560;2023-04-24T08:58:25;98667.03;;;10.65;100.00
31096;BME280;17749;51.962;8.560;2023-04-24T09:00:54;98667.69;;;10.68;100.00
31096;BME280;17749;51.962;8.560;2023-04-24T09:03:22;98676.00;;;10.64;100.00
31096;BME280;17749;51.962;8.560;2023-04-24T09:05:49;98675.22;;;10.62;100.00
31096;BME280;17749;51.962;8.560;2023-04-24T09:08:18;98674.28;;;10.48;100.00
31096;BME280;17749;51.962;8.560;2023-04-24T09:10:45;98667.56;;;10.43;100.00
31096;BME280;17749;51.962;8.560;2023-04-24T09:13:15;98678.66;;;10.49;100.00
31096;BME280;17749;51.962;8.560;2023-04-24T09:15:42;98668.22;;;10.46;100.00
31096;BME280;17749;51.962;8.560;2023-04-24T09:18:09;98667.25;;;10.33;100.00
31096;BME280;17749;51.962;8.560;2023-04-24T09:23:31;98673.63;;;10.30;100.00
31096;BME280;17749;51.962;8.560;2023-04-24T09:26:00;98671.59;;;10.20;100.00
31096;BME280;17749;51.962;8.560;2023-04-24T09:28:39;98674.25;;;10.20;100.00
31096;BME280;17749;51.962;8.560;2023-04-24T09:31:12;98671.16;;;10.27;100.00
31096;BME280;17749;51.962;8.560;2023-04-24T09:33:53;98669.34;;;10.28;100.00
31096;BME280;17749;51.962;8.560;2023-04-24T09:36:27;98673.50;;;10.32;100.00
31096;BME280;17749;51.962;8.560;2023-04-24T09:38:59;98672.59;;;10.33;100.00
31096;BME280;17749;51.962;8.560;2023-04-24T09:41:27;98682.25;;;10.34;100.00
31096;BME280;17749;51.962;8.560;2023-04-24T09:43:55;98688.53;;;10.33;100.00
31096;BME280;17749;51.962;8.560;2023-04-24T09:46:32;98687.00;;;10.29;100.00
31096;BME280;17749;51.962;8.560;2023-04-24T09:49:23;98690.63;;;10.28;100.00
31096;BME280;17749;51.962;8.560;2023-04-24T09:51:50;98691.78;;;10.38;100.00
31096;BME280;17749;51.962;8.560;2023-04-24T09:54:20;98684.91;;;10.20;100.00
31096;BME280;17749;51.962;8.560;2023-04-24T09:56:49;98694.09;;;10.14;100.00
31096;BME280;17749;51.962;8.560;2023-04-24T09:59:18;98696.78;;;10.14;100.00
31096;BME280;17749;51.962;8.560;2023-04-24T10:01:46;98703.72;;;10.17;100.00
31096;BME280;17749;51.962;8.560;2023-04-24T10:04:17;98707.31;;;10.16;100.00
31096;BME280;17749;51.962;8.560;2023-04-24T10:06:45;98697.59;;;10.00;100.00
31096;BME280;17749;51.962;8.560;2023-04-24T10:09:12;98699.50;;;9.98;100.00
31096;BME280;17749;51.962;8.560;2023-04-24T10:11:45;98697.59;;;10.00;100.00
31096;BME280;17749;51.962;8.560;2023-04-24T10:14:14;98697.03;;;10.09;100.00
31096;BME280;17749;51.962;8.560;2023-04-24T10:16:42;98705.78;;;10.12;100.00
31096;BME280;17749;51.962;8.560;2023-04-24T10:19:10;98714.44;;;10.15;100.00
31096;BME280;17749;51.962;8.560;2023-04-24T10:21:41;98710.41;;;10.08;100.00
31096;BME280;17749;51.962;8.560;2023-04-24T10:24:09;98714.69;;;10.10;100.00
31096;BME280;17749;51.962;8.560;2023-04-24T10:26:36;98720.03;;;10.10;100.00
31096;BME280;17749;51.962;8.560;2023-04-24T10:29:05;98726.50;;;10.06;100.00
31096;BME280;17749;51.962;8.560;2023-04-24T10:31:36;98731.41;;;9.98;100.00
31096;BME280;17749;51.962;8.560;2023-04-24T10:34:08;98735.00;;;9.97;100.00
31096;BME280;17749;51.962;8.560;2023-04-24T10:36:38;98738.81;;;9.93;100.00
31096;BME280;17749;51.962;8.560;2023-04-24T10:39:10;98736.41;;;9.88;100.00
31096;BME280;17749;51.962;8.560;2023-04-24T10:41:38;98737.78;;;9.96;100.00
31096;BME280;17749;51.962;8.560;2023-04-24T10:44:10;98741.66;;;10.04;100.00
31096;BME280;17749;51.962;8.560;2023-04-24T10:46:38;98752.13;;;10.07;100.00
31096;BME280;17749;51.962;8.560;2023-04-24T10:49:06;98749.91;;;10.00;100.00
31096;BME280;17749;51.962;8.560;2023-04-24T10:51:45;98756.47;;;9.94;100.00
31096;BME280;17749;51.962;8.560;2023-04-24T10:57:26;98775.38;;;9.74;100.00
31096;BME280;17749;51.962;8.560;2023-04-24T11:00:20;98780.50;;;9.77;100.00
31096;BME280;17749;51.962;8.560;2023-04-24T11:02:48;98777.28;;;9.56;100.00
31096;BME280;17749;51.962;8.560;2023-04-24T11:05:20;98783.38;;;9.58;100.00
31096;BME280;17749;51.962;8.560;2023-04-24T11:08:26;98801.63;;;9.48;100.00
31096;BME280;17749;51.962;8.560;2023-04-24T11:13:23;98798.56;;;9.40;100.00
31096;BME280;17749;51.962;8.560;2023-04-24T11:16:29;98812.38;;;9.31;100.00
31096;BME280;17749;51.962;8.560;2023-04-24T11:19:24;98810.81;;;9.27;100.00
31096;BME280;17749;51.962;8.560;2023-04-24T11:22:02;98815.19;;;9.28;100.00
31096;BME280;17749;51.962;8.560;2023-04-24T11:27:13;98819.81;;;9.40;100.00
31096;BME280;17749;51.962;8.560;2023-04-24T11:29:51;98819.63;;;9.43;100.00
31096;BME280;17749;51.962;8.560;2023-04-24T11:35:01;98829.34;;;9.44;100.00
31096;BME280;17749;51.962;8.560;2023-04-24T11:37:35;98837.97;;;9.48;100.00
31096;BME280;17749;51.962;8.560;2023-04-24T11:40:07;98840.22;;;9.55;100.00
31096;BME280;17749;51.962;8.560;2023-04-24T11:42:48;98852.47;;;9.58;100.00
31096;BME280;17749;51.962;8.560;2023-04-24T11:45:16;98863.03;;;9.59;100.00
31096;BME280;17749;51.962;8.560;2023-04-24T11:47:44;98857.78;;;9.58;100.00
31096;BME280;17749;51.962;8.560;2023-04-24T11:50:16;98870.22;;;9.57;100.00
31096;BME280;17749;51.962;8.560;2023-04-24T11:52:45;98875.00;;;9.66;100.00
31096;BME280;17749;51.962;8.560;2023-04-24T11:57:43;98872.47;;;9.65;100.00
31096;BME280;17749;51.962;8.560;2023-04-24T12:00:19;98874.88;;;9.70;100.00
31096;BME280;17749;51.962;8.560;2023-04-24T12:02:48;98888.16;;;9.70;100.00
31096;BME280;17749;51.962;8.560;2023-04-24T12:05:25;98879.56;;;9.80;100.00
31096;BME280;17749;51.962;8.560;2023-04-24T12:07:53;98890.09;;;9.82;100.00
31096;BME280;17749;51.962;8.560;2023-04-24T12:10:26;98900.72;;;9.82;100.00
31096;BME280;17749;51.962;8.560;2023-04-24T12:12:55;98907.78;;;9.67;100.00
31096;BME280;17749;51.962;8.560;2023-04-24T12:15:23;98918.22;;;9.54;100.00
31096;BME280;17749;51.962;8.560;2023-04-24T12:17:51;98916.66;;;9.50;100.00
31096;BME280;17749;51.962;8.560;2023-04-24T12:20:27;98922.50;;;9.41;100.00
31096;BME280;17749;51.962;8.560;2023-04-24T12:22:56;98937.03;;;9.34;100.00
31096;BME280;17749;51.962;8.560;2023-04-24T12:25:25;98939.53;;;9.37;100.00
31096;BME280;17749;51.962;8.560;2023-04-24T12:28:09;98943.22;;;9.34;100.00
31096;BME280;17749;51.962;8.560;2023-04-24T12:30:44;98951.13;;;9.36;100.00
31096;BME280;17749;51.962;8.560;2023-04-24T12:33:19;98947.34;;;9.40;100.00
31096;BME280;17749;51.962;8.560;2023-04-24T12:35:48;98954.56;;;9.38;100.00
31096;BME280;17749;51.962;8.560;2023-04-24T12:38:16;98963.44;;;9.37;100.00
31096;BME280;17749;51.962;8.560;2023-04-24T12:40:44;98957.97;;;9.40;100.00
31096;BME280;17749;51.962;8.560;2023-04-24T12:43:18;98979.22;;;9.40;100.00
31096;BME280;17749;51.962;8.560;2023-04-24T12:45:47;98972.09;;;9.40;100.00
31096;BME280;17749;51.962;8.560;2023-04-24T12:48:15;98974.94;;;9.37;100.00
31096;BME280;17749;51.962;8.560;2023-04-24T12:50:43;98983.78;;;9.38;100.00
31096;BME280;17749;51.962;8.560;2023-04-24T12:53:13;98984.03;;;9.33;100.00
31096;BME280;17749;51.962;8.560;2023-04-24T12:55:40;98991.09;;;9.17;100.00
31096;BME280;17749;51.962;8.560;2023-04-24T12:58:07;98997.25;;;9.17;100.00
31096;BME280;17749;51.962;8.560;2023-04-24T13:00:34;98994.88;;;9.11;100.00
31096;BME280;17749;51.962;8.560;2023-04-24T13:03:02;99000.06;;;9.14;100.00
31096;BME280;17749;51.962;8.560;2023-04-24T13:05:30;99001.78;;;9.15;100.00
31096;BME280;17749;51.962;8.560;2023-04-24T13:07:57;98995.97;;;9.25;100.00
31096;BME280;17749;51.962;8.560;2023-04-24T13:10:24;98998.50;;;9.28;100.00
31096;BME280;17749;51.962;8.560;2023-04-24T13:12:51;99008.00;;;9.32;100.00
31096;BME280;17749;51.962;8.560;2023-04-24T13:15:18;99006.13;;;9.34;100.00
31096;BME280;17749;51.962;8.560;2023-04-24T13:17:45;99008.50;;;9.23;100.00
31096;BME280;17749;51.962;8.560;2023-04-24T13:20:12;99014.59;;;9.07;100.00
31096;BME280;17749;51.962;8.560;2023-04-24T13:22:39;99019.19;;;9.04;100.00
31096;BME280;17749;51.962;8.560;2023-04-24T13:25:07;99025.69;;;9.15;100.00
31096;BME280;17749;51.962;8.560;2023-04-24T13:27:34;99021.44;;;9.11;100.00
31096;BME280;17749;51.962;8.560;2023-04-24T13:30:01;99041.00;;;9.10;100.00
31096;BME280;17749;51.962;8.560;2023-04-24T13:32:28;99032.78;;;9.15;100.00
31096;BME280;17749;51.962;8.560;2023-04-24T13:34:56;99036.94;;;9.20;100.00
31096;BME280;17749;51.962;8.560;2023-04-24T13:37:23;99040.38;;;9.23;100.00
31096;BME280;17749;51.962;8.560;2023-04-24T13:39:50;99038.88;;;9.17;100.00
31096;BME280;17749;51.962;8.560;2023-04-24T13:42:18;99045.13;;;9.16;100.00
31096;BME280;17749;51.962;8.560;2023-04-24T13:44:45;99047.72;;;9.17;100.00
31096;BME280;17749;51.962;8.560;2023-04-24T13:47:12;99049.25;;;9.21;100.00
31096;BME280;17749;51.962;8.560;2023-04-24T13:49:40;99050.59;;;9.13;100.00
31096;BME280;17749;51.962;8.560;2023-04-24T13:52:06;99040.66;;;9.16;100.00
31096;BME280;17749;51.962;8.560;2023-04-24T13:54:34;99052.00;;;9.20;100.00
31096;BME280;17749;51.962;8.560;2023-04-24T13:57:01;99043.78;;;9.25;100.00
31096;BME280;17749;51.962;8.560;2023-04-24T13:59:29;99050.03;;;9.24;100.00
31096;BME280;17749;51.962;8.560;2023-04-24T14:01:56;99052.22;;;9.15;100.00
31096;BME280;17749;51.962;8.560;2023-04-24T14:04:23;99050.53;;;9.14;100.00
31096;BME280;17749;51.962;8.560;2023-04-24T14:06:51;99054.09;;;9.13;100.00
31096;BME280;17749;51.962;8.560;2023-04-24T14:09:17;99046.69;;;9.20;100.00
31096;BME280;17749;51.962;8.560;2023-04-24T14:11:44;99053.47;;;9.26;100.00
31096;BME280;17749;51.962;8.560;2023-04-24T14:14:11;99057.84;;;9.27;100.00
31096;BME280;17749;51.962;8.560;2023-04-24T14:16:38;99049.72;;;9.30;100.00
31096;BME280;17749;51.962;8.560;2023-04-24T14:19:05;99062.31;;;9.26;100.00
31096;BME280;17749;51.962;8.560;2023-04-24T14:21:33;99060.03;;;9.18;100.00
31096;BME280;17749;51.962;8.560;2023-04-24T14:24:00;99059.41;;;9.13;100.00
31096;BME280;17749;51.962;8.560;2023-04-24T14:26:27;99068.50;;;9.09;100.00
31096;BME280;17749;51.962;8.560;2023-04-24T14:28:54;99060.38;;;9.12;100.00
31096;BME280;17749;51.962;8.560;2023-04-24T14:31:37;99064.81;;;9.12;100.00
31096;BME280;17749;51.962;8.560;2023-04-24T14:34:03;99064.03;;;9.10;100.00
31096;BME280;17749;51.962;8.560;2023-04-24T14:36:30;99071.00;;;9.12;100.00
31096;BME280;17749;51.962;8.560;2023-04-24T14:38:58;99076.31;;;9.12;100.00
31096;BME280;17749;51.962;8.560;2023-04-24T14:41:26;99070.81;;;9.15;100.00
31096;BME280;17749;51.962;8.560;2023-04-24T14:43:52;99077.63;;;9.21;100.00
31096;BME280;17749;51.962;8.560;2023-04-24T14:46:19;99073.41;;;9.17;100.00
31096;BME280;17749;51.962;8.560;2023-04-24T14:48:46;99078.56;;;9.20;100.00
31096;BME280;17749;51.962;8.560;2023-04-24T14:51:13;99083.16;;;9.16;100.00
31096;BME280;17749;51.962;8.560;2023-04-24T14:53:40;99088.88;;;9.26;100.00
31096;BME280;17749;51.962;8.560;2023-04-24T14:56:07;99086.00;;;9.31;100.00
31096;BME280;17749;51.962;8.560;2023-04-24T14:58:34;99086.28;;;9.25;100.00
31096;BME280;17749;51.962;8.560;2023-04-24T15:01:01;99084.75;;;9.20;100.00
31096;BME280;17749;51.962;8.560;2023-04-24T15:03:28;99095.97;;;9.08;100.00
31096;BME280;17749;51.962;8.560;2023-04-24T15:05:56;99095.81;;;9.11;100.00
31096;BME280;17749;51.962;8.560;2023-04-24T15:08:23;99102.91;;;9.11;100.00
31096;BME280;17749;51.962;8.560;2023-04-24T15:10:50;99105.03;;;9.04;100.00
31096;BME280;17749;51.962;8.560;2023-04-24T15:13:18;99101.88;;;8.96;100.00
31096;BME280;17749;51.962;8.560;2023-04-24T15:15:48;99105.63;;;8.92;100.00
31096;BME280;17749;51.962;8.560;2023-04-24T15:18:15;99101.03;;;8.95;100.00
31096;BME280;17749;51.962;8.560;2023-04-24T15:20:42;99108.22;;;8.93;100.00
31096;BME280;17749;51.962;8.560;2023-04-24T15:23:09;99114.56;;;8.91;100.00
31096;BME280;17749;51.962;8.560;2023-04-24T15:25:36;99118.38;;;9.03;100.00
31096;BME280;17749;51.962;8.560;2023-04-24T15:28:04;99120.66;;;9.10;100.00
31096;BME280;17749;51.962;8.560;2023-04-24T15:30:32;99139.09;;;9.13;100.00
31096;BME280;17749;51.962;8.560;2023-04-24T15:32:59;99129.97;;;9.19;100.00
31096;BME280;17749;51.962;8.560;2023-04-24T15:35:27;99125.59;;;9.18;100.00
31096;BME280;17749;51.962;8.560;2023-04-24T15:37:55;99133.19;;;9.26;100.00
31096;BME280;17749;51.962;8.560;2023-04-24T15:40:21;99128.94;;;9.21;100.00
31096;BME280;17749;51.962;8.560;2023-04-24T15:42:49;99126.81;;;9.11;100.00
31096;BME280;17749;51.962;8.560;2023-04-24T15:45:16;99125.91;;;9.12;100.00
31096;BME280;17749;51.962;8.560;2023-04-24T15:47:44;99131.13;;;9.13;100.00
31096;BME280;17749;51.962;8.560;2023-04-24T15:50:12;99132.06;;;9.12;100.00
31096;BME280;17749;51.962;8.560;2023-04-24T15:52:44;99137.16;;;9.17;100.00
31096;BME280;17749;51.962;8.560;2023-04-24T15:55:11;99136.00;;;9.23;100.00
31096;BME280;17749;51.962;8.560;2023-04-24T15:57:39;99150.81;;;9.27;100.00
31096;BME280;17749;51.962;8.560;2023-04-24T16:00:06;99136.22;;;9.18;100.00
31096;BME280;17749;51.962;8.560;2023-04-24T16:02:39;99138.78;;;9.19;100.00
31096;BME280;17749;51.962;8.560;2023-04-24T16:05:07;99146.22;;;9.13;100.00
31096;BME280;17749;51.962;8.560;2023-04-24T16:07:34;99145.84;;;9.20;100.00
31096;BME280;17749;51.962;8.560;2023-04-24T16:10:01;99153.66;;;9.24;100.00
31096;BME280;17749;51.962;8.560;2023-04-24T16:12:28;99152.06;;;9.19;100.00
31096;BME280;17749;51.962;8.560;2023-04-24T16:14:56;99156.53;;;9.19;100.00
31096;BME280;17749;51.962;8.560;2023-04-24T16:17:22;99146.38;;;9.10;100.00
31096;BME280;17749;51.962;8.560;2023-04-24T16:19:49;99154.56;;;9.05;100.00
31096;BME280;17749;51.962;8.560;2023-04-24T16:22:16;99153.84;;;9.02;100.00
31096;BME280;17749;51.962;8.560;2023-04-24T16:24:43;99152.59;;;9.09;100.00
31096;BME280;17749;51.962;8.560;2023-04-24T16:27:13;99157.22;;;9.05;100.00
31096;BME280;17749;51.962;8.560;2023-04-24T16:29:40;99159.94;;;9.04;100.00
31096;BME280;17749;51.962;8.560;2023-04-24T16:32:08;99160.66;;;9.07;100.00
31096;BME280;17749;51.962;8.560;2023-04-24T16:34:36;99168.47;;;9.10;100.00
31096;BME280;17749;51.962;8.560;2023-04-24T16:37:03;99163.16;;;9.10;100.00
31096;BME280;17749;51.962;8.560;2023-04-24T16:39:31;99164.38;;;9.03;100.00
31096;BME280;17749;51.962;8.560;2023-04-24T16:41:58;99171.50;;;9.03;100.00
31096;BME280;17749;51.962;8.560;2023-04-24T16:44:26;99170.91;;;8.96;100.00
31096;BME280;17749;51.962;8.560;2023-04-24T16:46:53;99171.22;;;8.90;100.00
31096;BME280;17749;51.962;8.560;2023-04-24T16:49:21;99165.41;;;8.82;100.00
31096;BME280;17749;51.962;8.560;2023-04-24T16:51:49;99164.63;;;8.80;100.00
31096;BME280;17749;51.962;8.560;2023-04-24T16:54:16;99177.91;;;8.80;100.00
31096;BME280;17749;51.962;8.560;2023-04-24T16:56:43;99175.84;;;8.86;100.00
31096;BME280;17749;51.962;8.560;2023-04-24T16:59:10;99180.13;;;8.89;100.00
31096;BME280;17749;51.962;8.560;2023-04-24T17:01:38;99186.34;;;8.88;100.00
31096;BME280;17749;51.962;8.560;2023-04-24T17:04:05;99184.44;;;8.91;100.00
31096;BME280;17749;51.962;8.560;2023-04-24T17:06:32;99198.72;;;8.89;100.00
31096;BME280;17749;51.962;8.560;2023-04-24T17:08:59;99197.78;;;8.90;100.00
31096;BME280;17749;51.962;8.560;2023-04-24T17:11:26;99197.28;;;8.82;100.00
31096;BME280;17749;51.962;8.560;2023-04-24T17:13:56;99194.63;;;8.82;100.00
31096;BME280;17749;51.962;8.560;2023-04-24T17:16:26;99201.72;;;8.81;100.00
31096;BME280;17749;51.962;8.560;2023-04-24T17:18:53;99192.13;;;8.78;100.00
31096;BME280;17749;51.962;8.560;2023-04-24T17:21:20;99204.38;;;8.81;100.00
31096;BME280;17749;51.962;8.560;2023-04-24T17:23:47;99199.94;;;8.82;100.00
31096;BME280;17749;51.962;8.560;2023-04-24T17:26:14;99197.28;;;8.82;100.00
31096;BME280;17749;51.962;8.560;2023-04-24T17:28:41;99204.75;;;8.73;100.00
31096;BME280;17749;51.962;8.560;2023-04-24T17:31:08;99198.66;;;8.71;100.00
31096;BME280;17749;51.962;8.560;2023-04-24T17:33:35;99199.50;;;8.72;100.00
31096;BME280;17749;51.962;8.560;2023-04-24T17:36:01;99198.94;;;8.65;100.00
31096;BME280;17749;51.962;8.560;2023-04-24T17:38:29;99204.41;;;8.62;100.00
31096;BME280;17749;51.962;8.560;2023-04-24T17:40:56;99193.91;;;8.59;100.00
31096;BME280;17749;51.962;8.560;2023-04-24T17:43:24;99194.53;;;8.64;100.00
31096;BME280;17749;51.962;8.560;2023-04-24T17:45:52;99188.31;;;8.65;100.00
31096;BME280;17749;51.962;8.560;2023-04-24T17:48:24;99193.91;;;8.59;100.00
31096;BME280;17749;51.962;8.560;2023-04-24T17:50:51;99202.66;;;8.61;100.00
31096;BME280;17749;51.962;8.560;2023-04-24T17:53:18;99195.84;;;8.55;100.00
31096;BME280;17749;51.962;8.560;2023-04-24T17:55:46;99196.06;;;8.51;100.00
31096;BME280;17749;51.962;8.560;2023-04-24T17:58:13;99196.19;;;8.48;100.00
31096;BME280;17749;51.962;8.560;2023-04-24T18:00:40;99199.06;;;8.43;100.00
31096;BME280;17749;51.962;8.560;2023-04-24T18:03:08;99199.25;;;8.39;100.00
31096;BME280;17749;51.962;8.560;2023-04-24T18:05:37;99201.91;;;8.39;100.00
31096;BME280;17749;51.962;8.560;2023-04-24T18:08:04;99193.16;;;8.37;100.00
31096;BME280;17749;51.962;8.560;2023-04-24T18:10:33;99204.75;;;8.34;100.00
31096;BME280;17749;51.962;8.560;2023-04-24T18:13:03;99207.63;;;8.29;100.00
31096;BME280;17749;51.962;8.560;2023-04-24T18:15:30;99216.66;;;8.25;100.00
31096;BME280;17749;51.962;8.560;2023-04-24T18:17:57;99214.00;;;8.25;100.00
31096;BME280;17749;51.962;8.560;2023-04-24T18:20:25;99214.91;;;8.24;100.00
31096;BME280;17749;51.962;8.560;2023-04-24T18:22:52;99220.22;;;8.24;100.00
31096;BME280;17749;51.962;8.560;2023-04-24T18:25:20;99217.38;;;8.29;100.00